Time;durP1;ratioP1;P1;durP2;ratioP2;P2;SDS_P1;SDS_P2;PMS_P1;PMS_P2;Temp;Humidity;BMP_temperature;BMP_pressure;BME280_temperature;BME280_humidity;BME280_pressure;Samples;Min_cycle;Max_cycle;Signal;HPM_P1;HPM_P2
2023/04/09 00:02:15;;;;;;;29.40;19.15;;;12.70;68.70;;;;;;5049922;28;20033;-63
2023/04/09 00:04:40;;;;;;;30.10;19.80;;;12.70;68.70;;;;;;5035579;28;20037;-63
2023/04/09 00:07:06;;;;;;;26.75;18.88;;;12.70;68.70;;;;;;5023403;28;20426;-64
2023/04/09 00:09:32;;;;;;;29.65;19.23;;;12.70;68.70;;;;;;5021417;28;20041;-63
2023/04/09 00:11:58;;;;;;;29.05;18.25;;;12.70;68.80;;;;;;5048078;28;20116;-63
2023/04/09 00:14:24;;;;;;;29.55;20.58;;;12.70;68.80;;;;;;5039537;28;20064;-63
2023/04/09 00:16:49;;;;;;;28.65;18.77;;;12.70;68.80;;;;;;5044200;28;20021;-63
2023/04/09 00:19:15;;;;;;;29.67;19.27;;;12.70;68.80;;;;;;5043052;28;20031;-64
2023/04/09 00:21:41;;;;;;;28.60;19.17;;;12.70;68.80;;;;;;5044795;28;20421;-63
2023/04/09 00:24:07;;;;;;;31.63;20.25;;;12.70;68.80;;;;;;5034782;28;20458;-63
2023/04/09 00:26:33;;;;;;;27.73;18.98;;;12.70;68.90;;;;;;5044438;28;20055;-63
2023/04/09 00:28:59;;;;;;;29.55;19.35;;;12.70;68.90;;;;;;5044723;28;20421;-63
2023/04/09 00:31:25;;;;;;;29.92;18.67;;;12.60;68.90;;;;;;5036802;28;20450;-64
2023/04/09 00:33:51;;;;;;;31.13;19.45;;;12.60;68.90;;;;;;5034559;28;20037;-64
2023/04/09 00:36:17;;;;;;;30.38;19.08;;;12.70;69.00;;;;;;5036869;28;20029;-63
2023/04/09 00:38:44;;;;;;;30.52;20.23;;;12.60;69.00;;;;;;5043479;28;20021;-63
2023/04/09 00:41:10;;;;;;;28.35;19.02;;;12.60;69.00;;;;;;5045832;28;20509;-63
2023/04/09 00:43:35;;;;;;;29.83;19.52;;;12.60;69.00;;;;;;5035380;28;20033;-63
2023/04/09 00:46:03;;;;;;;32.00;19.75;;;12.60;69.00;;;;;;5041335;28;20018;-63
2023/04/09 00:48:29;;;;;;;29.98;18.95;;;12.70;69.00;;;;;;5045035;28;20104;-63
2023/04/09 00:50:55;;;;;;;30.05;18.80;;;12.70;69.10;;;;;;5049880;28;20032;-63
2023/04/09 00:53:21;;;;;;;27.67;19.52;;;12.60;69.10;;;;;;5038694;28;20026;-63
2023/04/09 00:55:46;;;;;;;29.10;18.60;;;12.60;69.10;;;;;;5040078;28;20057;-63
2023/04/09 00:58:13;;;;;;;28.58;18.38;;;12.60;69.10;;;;;;5039513;28;20025;-63
2023/04/09 01:00:39;;;;;;;28.80;18.63;;;12.60;69.10;;;;;;5045114;28;20032;-63
2023/04/09 01:03:06;;;;;;;29.85;18.73;;;12.60;69.10;;;;;;5042332;28;20448;-63
2023/04/09 01:06:03;;;;;;;29.60;19.85;;;12.60;69.20;;;;;;5040550;28;20026;-63
2023/04/09 01:08:41;;;;;;;30.58;18.92;;;12.60;69.20;;;;;;5030218;28;20033;-63
2023/04/09 01:11:28;;;;;;;31.25;19.70;;;12.50;69.20;;;;;;5029257;28;20102;-63
2023/04/09 01:14:25;;;;;;;29.13;18.85;;;12.50;69.40;;;;;;5040872;28;20084;-63
2023/04/09 01:17:02;;;;;;;32.08;21.02;;;12.50;69.40;;;;;;5029300;28;20025;-63
2023/04/09 01:19:41;;;;;;;29.30;19.83;;;12.40;69.50;;;;;;5033756;28;20036;-63
2023/04/09 01:22:22;;;;;;;29.70;19.95;;;12.40;69.60;;;;;;5041871;28;20075;-63
2023/04/09 01:25:13;;;;;;;29.45;20.10;;;12.50;69.70;;;;;;5047122;28;20025;-63
2023/04/09 01:28:20;;;;;;;30.80;19.15;;;12.50;69.70;;;;;;5043066;28;20485;-63
2023/04/09 01:30:51;;;;;;;26.52;17.40;;;12.50;69.70;;;;;;5030502;28;20120;-63
2023/04/09 01:33:19;;;;;;;30.88;17.95;;;12.50;69.80;;;;;;5043975;28;20094;-63
2023/04/09 01:35:48;;;;;;;30.02;18.25;;;12.50;69.70;;;;;;5044962;28;20599;-63
2023/04/09 01:38:15;;;;;;;26.85;18.13;;;12.40;69.70;;;;;;5018057;28;20426;-63
2023/04/09 01:40:41;;;;;;;29.30;18.38;;;12.50;69.70;;;;;;5041354;28;20035;-63
2023/04/09 01:43:09;;;;;;;26.27;18.80;;;12.50;69.80;;;;;;5035079;28;20143;-63
2023/04/09 01:45:36;;;;;;;29.08;19.05;;;12.50;69.80;;;;;;5042991;28;20033;-63
2023/04/09 01:48:03;;;;;;;32.60;21.10;;;12.50;69.80;;;;;;5036469;28;20038;-63
2023/04/09 01:50:29;;;;;;;32.25;18.48;;;12.50;69.80;;;;;;5033188;28;20082;-63
2023/04/09 01:52:55;;;;;;;26.20;17.52;;;12.50;69.80;;;;;;5032239;28;20546;-63
2023/04/09 01:55:21;;;;;;;26.73;17.05;;;12.50;69.80;;;;;;5045286;28;20069;-64
2023/04/09 01:57:47;;;;;;;28.30;18.60;;;12.50;69.80;;;;;;5035700;28;20076;-64
2023/04/09 02:00:14;;;;;;;29.13;18.70;;;12.40;69.80;;;;;;5043616;28;20117;-64
2023/04/09 02:02:54;;;;;;;25.65;18.10;;;12.50;69.90;;;;;;5035824;28;20059;-63
2023/04/09 02:05:23;;;;;;;26.45;18.40;;;12.50;69.90;;;;;;5036268;28;20029;-63
2023/04/09 02:07:55;;;;;;;26.02;17.92;;;12.50;69.90;;;;;;5039942;28;20044;-63
2023/04/09 02:10:25;;;;;;;26.17;18.00;;;12.50;69.90;;;;;;5043124;28;20117;-63
2023/04/09 02:12:52;;;;;;;27.75;18.00;;;12.50;70.00;;;;;;5035479;28;20044;-64
2023/04/09 02:15:20;;;;;;;27.77;18.27;;;12.40;69.90;;;;;;5038972;28;20025;-63
2023/04/09 02:17:46;;;;;;;26.77;18.25;;;12.40;69.90;;;;;;5036413;28;20447;-63
2023/04/09 02:20:16;;;;;;;27.25;19.17;;;12.40;70.00;;;;;;5037144;28;20112;-63
2023/04/09 02:22:42;;;;;;;30.85;19.80;;;12.40;70.10;;;;;;5042954;28;20049;-63
2023/04/09 02:25:08;;;;;;;28.58;18.75;;;12.40;70.10;;;;;;5047531;28;20154;-63
2023/04/09 02:27:34;;;;;;;28.90;18.45;;;12.40;70.10;;;;;;5036439;28;20512;-63
2023/04/09 02:30:00;;;;;;;24.00;17.38;;;12.40;70.20;;;;;;5045581;28;20087;-63
2023/04/09 02:32:26;;;;;;;28.80;19.23;;;12.40;70.80;;;;;;5035701;28;20033;-63
2023/04/09 02:34:52;;;;;;;31.13;20.52;;;12.40;70.20;;;;;;5042857;28;20040;-63
2023/04/09 02:37:17;;;;;;;27.10;18.00;;;12.40;70.20;;;;;;5024521;28;20029;-63
2023/04/09 02:39:43;;;;;;;28.15;18.77;;;12.40;70.20;;;;;;5026567;28;20422;-63
2023/04/09 02:42:09;;;;;;;25.65;17.17;;;12.40;70.10;;;;;;5051853;28;20029;-63
2023/04/09 02:44:34;;;;;;;28.55;18.80;;;12.40;70.10;;;;;;5026942;28;20091;-63
2023/04/09 02:47:01;;;;;;;25.27;17.90;;;12.40;70.10;;;;;;5048954;28;20355;-63
2023/04/09 02:49:26;;;;;;;25.60;17.48;;;12.40;70.10;;;;;;5045009;28;20040;-63
2023/04/09 02:51:52;;;;;;;25.92;17.70;;;12.40;70.10;;;;;;5046668;28;20365;-63
2023/04/09 02:54:18;;;;;;;26.33;17.73;;;12.40;70.10;;;;;;5039226;28;20028;-63
2023/04/09 02:56:44;;;;;;;27.13;18.45;;;12.40;70.00;;;;;;5046165;28;20431;-63
2023/04/09 02:59:10;;;;;;;27.40;17.95;;;12.40;70.10;;;;;;5040813;28;20112;-63
2023/04/09 03:01:36;;;;;;;30.17;19.45;;;12.40;70.10;;;;;;5049157;28;20029;-64
2023/04/09 03:04:01;;;;;;;28.75;18.92;;;12.40;70.20;;;;;;5022103;28;20386;-63
2023/04/09 03:06:27;;;;;;;26.27;17.98;;;12.40;70.30;;;;;;5032966;28;20476;-63
2023/04/09 03:08:53;;;;;;;28.00;18.15;;;12.40;70.30;;;;;;5041443;28;20332;-63
2023/04/09 03:11:19;;;;;;;26.25;18.30;;;12.30;70.20;;;;;;5048698;28;20025;-63
2023/04/09 03:13:45;;;;;;;27.83;18.63;;;12.30;70.30;;;;;;5033997;28;20112;-63
2023/04/09 03:16:11;;;;;;;26.67;17.35;;;12.30;70.30;;;;;;5049280;28;20124;-63
2023/04/09 03:18:36;;;;;;;28.92;17.67;;;12.30;70.30;;;;;;5045594;28;20339;-63
2023/04/09 03:21:06;;;;;;;26.75;17.52;;;12.30;70.50;;;;;;5036253;28;20096;-63
2023/04/09 03:23:34;;;;;;;26.30;17.40;;;12.30;70.60;;;;;;5034206;28;20056;-63
2023/04/09 03:26:04;;;;;;;26.95;17.40;;;12.30;70.70;;;;;;5042967;28;20347;-63
2023/04/09 03:28:35;;;;;;;26.33;18.10;;;12.30;71.30;;;;;;5006348;28;20447;-63
2023/04/09 03:31:01;;;;;;;28.20;18.75;;;12.30;70.70;;;;;;5042066;28;20018;-63
2023/04/09 03:33:29;;;;;;;26.40;19.02;;;12.30;70.60;;;;;;5047564;28;20120;-63
2023/04/09 03:35:57;;;;;;;27.10;17.75;;;12.30;70.60;;;;;;5052057;28;20395;-63
2023/04/09 03:38:33;;;;;;;29.17;19.05;;;12.30;70.60;;;;;;5035811;28;20071;-63
2023/04/09 03:41:04;;;;;;;28.43;18.23;;;12.30;70.50;;;;;;5048064;28;20029;-63
2023/04/09 03:43:31;;;;;;;26.58;17.75;;;12.20;70.40;;;;;;5040437;28;20029;-63
2023/04/09 03:45:57;;;;;;;29.00;18.35;;;12.20;70.50;;;;;;5055055;28;20021;-63
2023/04/09 03:48:25;;;;;;;28.95;19.02;;;12.20;70.50;;;;;;5026881;28;20336;-63
2023/04/09 03:50:52;;;;;;;26.73;17.65;;;12.20;70.40;;;;;;5024103;28;20441;-63
2023/04/09 03:53:25;;;;;;;27.13;18.10;;;12.20;70.40;;;;;;5034063;28;20028;-63
2023/04/09 03:55:53;;;;;;;28.98;17.90;;;12.20;70.40;;;;;;5054109;28;20128;-63
2023/04/09 03:58:23;;;;;;;26.40;17.52;;;12.20;70.40;;;;;;5029575;28;20037;-63
2023/04/09 04:00:49;;;;;;;25.58;16.30;;;12.20;70.40;;;;;;5051886;28;20307;-63
2023/04/09 04:03:38;;;;;;;26.00;17.70;;;12.20;70.40;;;;;;5035250;28;20462;-63
2023/04/09 04:06:12;;;;;;;27.25;18.63;;;12.10;70.40;;;;;;5039435;28;20028;-63
2023/04/09 04:09:10;;;;;;;26.08;16.83;;;12.20;70.60;;;;;;5050857;28;20057;-63
2023/04/09 04:11:44;;;;;;;25.42;16.13;;;12.10;70.50;;;;;;5049694;28;20521;-63
2023/04/09 04:14:10;;;;;;;26.20;17.05;;;12.10;70.60;;;;;;5034587;28;20032;-63
2023/04/09 04:16:39;;;;;;;25.42;16.88;;;12.10;70.60;;;;;;5030222;28;20328;-63
2023/04/09 04:19:06;;;;;;;29.20;17.85;;;12.10;70.60;;;;;;5008652;28;20358;-63
2023/04/09 04:21:39;;;;;;;25.80;16.88;;;12.00;70.50;;;;;;4999842;28;20021;-63
2023/04/09 04:24:09;;;;;;;26.95;17.48;;;12.00;70.40;;;;;;5016760;28;20084;-63
2023/04/09 04:26:35;;;;;;;24.38;16.95;;;12.00;71.00;;;;;;5018570;28;20025;-63
2023/04/09 04:29:01;;;;;;;27.67;17.40;;;12.00;70.40;;;;;;5022228;28;20025;-64
2023/04/09 04:31:51;;;;;;;27.38;17.10;;;12.00;70.40;;;;;;5019960;28;20094;-63
2023/04/09 04:34:20;;;;;;;27.30;18.35;;;11.90;70.30;;;;;;5026210;28;20096;-63
2023/04/09 04:36:51;;;;;;;24.88;17.27;;;11.90;70.30;;;;;;5016244;28;20440;-63
2023/04/09 04:39:18;;;;;;;26.77;17.17;;;11.90;70.20;;;;;;5035713;28;20044;-63
2023/04/09 04:41:55;;;;;;;26.25;17.30;;;11.90;70.20;;;;;;5037800;28;20358;-63
2023/04/09 04:44:24;;;;;;;25.00;18.05;;;11.90;70.10;;;;;;5031407;28;20056;-63
2023/04/09 04:46:57;;;;;;;26.13;16.70;;;11.90;70.10;;;;;;5051873;28;20029;-63
2023/04/09 04:49:23;;;;;;;26.95;18.42;;;11.80;70.70;;;;;;5017702;28;20017;-63
2023/04/09 04:51:50;;;;;;;26.67;18.63;;;11.80;70.10;;;;;;5022016;28;20117;-63
2023/04/09 04:54:16;;;;;;;25.75;17.08;;;11.80;70.10;;;;;;5033110;28;20038;-63
2023/04/09 04:56:49;;;;;;;27.85;17.33;;;11.80;70.10;;;;;;5003356;28;20030;-63
2023/04/09 04:59:30;;;;;;;27.58;17.67;;;11.70;70.10;;;;;;5016044;28;20065;-62
2023/04/09 05:02:03;;;;;;;25.70;17.23;;;11.80;70.20;;;;;;5014724;28;20018;-63
2023/04/09 05:04:34;;;;;;;26.63;17.27;;;11.70;70.20;;;;;;5019540;28;20121;-63
2023/04/09 05:07:00;;;;;;;27.65;18.33;;;11.70;70.10;;;;;;5029342;28;20040;-63
2023/04/09 05:09:26;;;;;;;27.67;17.58;;;11.70;70.00;;;;;;5032421;28;20033;-63
2023/04/09 05:12:05;;;;;;;24.15;16.65;;;11.70;70.00;;;;;;5015984;28;20021;-63
2023/04/09 05:14:30;;;;;;;26.23;17.13;;;11.70;70.00;;;;;;5032343;28;20031;-62
2023/04/09 05:16:56;;;;;;;26.25;16.90;;;11.60;69.80;;;;;;5028029;28;20035;-62
2023/04/09 05:19:27;;;;;;;26.65;17.27;;;11.60;69.80;;;;;;5015780;28;20025;-62
2023/04/09 05:21:58;;;;;;;27.00;17.85;;;11.60;69.70;;;;;;5030777;28;20072;-62
2023/04/09 05:24:23;;;;;;;26.02;18.08;;;11.50;69.60;;;;;;5031623;28;20029;-62
2023/04/09 05:26:49;;;;;;;28.58;17.35;;;11.50;69.70;;;;;;5014191;28;20486;-63
2023/04/09 05:29:16;;;;;;;25.58;16.25;;;11.50;69.70;;;;;;5030720;28;20116;-63
2023/04/09 05:31:42;;;;;;;25.27;16.42;;;11.40;69.50;;;;;;5030553;28;20025;-62
2023/04/09 05:34:14;;;;;;;26.42;16.95;;;11.40;69.60;;;;;;5025931;28;20060;-63
2023/04/09 05:36:43;;;;;;;23.33;15.85;;;11.40;69.50;;;;;;5013547;28;20489;-62
2023/04/09 05:39:10;;;;;;;27.02;17.80;;;11.40;69.40;;;;;;5011315;28;20026;-63
2023/04/09 05:41:37;;;;;;;26.23;16.50;;;11.30;69.30;;;;;;5030777;28;20045;-62
2023/04/09 05:44:21;;;;;;;25.98;16.23;;;11.30;69.30;;;;;;5033940;28;20045;-63
2023/04/09 05:46:49;;;;;;;24.95;16.58;;;11.30;69.20;;;;;;5016034;28;20551;-63
2023/04/09 05:49:19;;;;;;;26.60;17.45;;;11.30;69.90;;;;;;5020026;28;20091;-63
2023/04/09 05:51:49;;;;;;;25.67;16.35;;;11.30;69.20;;;;;;5032206;28;20029;-63
2023/04/09 05:54:20;;;;;;;23.83;16.15;;;11.20;69.10;;;;;;5036780;28;20033;-63
2023/04/09 05:56:47;;;;;;;29.55;16.92;;;11.20;69.10;;;;;;5036538;28;20481;-63
2023/04/09 05:59:13;;;;;;;24.33;16.80;;;11.30;69.10;;;;;;5054568;28;20017;-63
2023/04/09 06:01:40;;;;;;;26.35;17.60;;;11.30;68.90;;;;;;5033808;28;20021;-63
2023/04/09 06:04:05;;;;;;;26.55;17.30;;;11.40;68.70;;;;;;5052994;28;20078;-61
2023/04/09 06:06:31;;;;;;;24.92;15.40;;;11.50;68.50;;;;;;5030420;28;20112;-62
2023/04/09 06:08:59;;;;;;;26.05;17.10;;;11.60;68.10;;;;;;5047685;28;20021;-62
2023/04/09 06:11:24;;;;;;;24.85;16.13;;;11.80;67.80;;;;;;5035197;28;20034;-61
2023/04/09 06:13:50;;;;;;;25.10;16.63;;;11.80;67.50;;;;;;5050200;28;20033;-62
2023/04/09 06:16:16;;;;;;;26.65;16.65;;;11.90;67.30;;;;;;5038136;28;20040;-62
2023/04/09 06:18:44;;;;;;;28.67;17.90;;;12.00;67.00;;;;;;5046916;28;20029;-62
2023/04/09 06:21:12;;;;;;;27.58;17.30;;;12.30;66.60;;;;;;5036103;28;20501;-64
2023/04/09 06:23:38;;;;;;;26.08;16.98;;;12.60;66.00;;;;;;5029174;28;20430;-63
2023/04/09 06:26:04;;;;;;;25.63;15.48;;;13.00;65.30;;;;;;5038934;28;20040;-63
2023/04/09 06:28:31;;;;;;;25.52;16.30;;;13.60;64.10;;;;;;5043599;28;20120;-63
2023/04/09 06:30:57;;;;;;;24.33;16.05;;;14.20;62.80;;;;;;5043149;28;20116;-63
2023/04/09 06:33:23;;;;;;;29.88;17.10;;;14.60;61.80;;;;;;5023198;28;20025;-63
2023/04/09 06:35:49;;;;;;;27.63;17.20;;;15.00;60.90;;;;;;5035762;28;20124;-63
2023/04/09 06:38:15;;;;;;;26.23;17.27;;;15.30;60.00;;;;;;5037175;28;20025;-64
2023/04/09 06:40:41;;;;;;;24.85;17.10;;;15.50;59.50;;;;;;5043976;28;20025;-63
2023/04/09 06:43:08;;;;;;;25.23;16.25;;;15.60;59.00;;;;;;5036254;28;20029;-63
2023/04/09 06:45:52;;;;;;;26.90;16.90;;;15.60;58.80;;;;;;5022651;28;20125;-63
2023/04/09 06:48:18;;;;;;;23.90;17.05;;;15.50;58.90;;;;;;5035385;28;20112;-64
2023/04/09 06:50:44;;;;;;;24.60;16.73;;;15.40;59.00;;;;;;5036888;28;20071;-63
2023/04/09 06:53:10;;;;;;;26.38;17.38;;;15.20;59.10;;;;;;5036261;28;20029;-63
2023/04/09 06:55:35;;;;;;;25.35;16.33;;;15.10;59.30;;;;;;5038910;28;20068;-64
2023/04/09 06:58:02;;;;;;;26.23;18.45;;;15.00;59.40;;;;;;5042203;28;20097;-64
2023/04/09 07:00:27;;;;;;;26.80;18.35;;;14.90;59.40;;;;;;5041750;28;20017;-64
2023/04/09 07:02:53;;;;;;;27.40;17.55;;;14.80;59.50;;;;;;5043293;28;20130;-64
2023/04/09 07:05:19;;;;;;;25.88;17.25;;;14.90;59.40;;;;;;5028149;28;20033;-62
2023/04/09 07:07:45;;;;;;;25.20;17.30;;;15.00;59.30;;;;;;5019340;28;20036;-64
2023/04/09 07:10:11;;;;;;;25.30;15.95;;;15.00;59.10;;;;;;5027549;28;20024;-64
2023/04/09 07:12:36;;;;;;;26.83;17.10;;;15.00;59.00;;;;;;5050319;28;20115;-64
2023/04/09 07:15:05;;;;;;;28.25;18.02;;;15.10;58.80;;;;;;5041288;28;20037;-65
2023/04/09 07:17:31;;;;;;;25.15;17.40;;;15.20;58.70;;;;;;5045238;28;20026;-64
2023/04/09 07:19:56;;;;;;;25.35;17.67;;;15.30;58.60;;;;;;5032515;28;20029;-64
2023/04/09 07:22:24;;;;;;;25.23;17.30;;;15.30;58.40;;;;;;5038495;28;20029;-64
2023/04/09 07:24:52;;;;;;;25.67;16.00;;;15.40;58.30;;;;;;5026526;28;20056;-64
2023/04/09 07:27:26;;;;;;;25.35;16.70;;;15.40;58.10;;;;;;5039637;28;20453;-64
2023/04/09 07:29:56;;;;;;;24.17;16.40;;;15.50;57.80;;;;;;5040621;28;20045;-65
2023/04/09 07:32:23;;;;;;;24.98;17.00;;;15.50;57.70;;;;;;5054553;28;20068;-65
2023/04/09 07:34:51;;;;;;;25.10;17.10;;;15.60;57.70;;;;;;5049964;28;20032;-64
2023/04/09 07:37:17;;;;;;;23.60;16.10;;;15.60;57.50;;;;;;5032129;28;20338;-64
2023/04/09 07:39:43;;;;;;;25.42;17.10;;;15.80;57.40;;;;;;5033769;28;20112;-64
2023/04/09 07:42:09;;;;;;;27.23;18.00;;;15.80;57.20;;;;;;5042646;28;20063;-64
2023/04/09 07:44:35;;;;;;;27.85;17.05;;;15.90;57.20;;;;;;5055655;28;20416;-63
2023/04/09 07:47:02;;;;;;;24.88;17.42;;;15.90;57.00;;;;;;5042517;28;20021;-63
2023/04/09 07:49:28;;;;;;;25.33;17.75;;;15.90;57.00;;;;;;5045316;28;20051;-64
2023/04/09 07:51:54;;;;;;;27.23;17.13;;;16.00;56.90;;;;;;5044415;28;20423;-64
2023/04/09 07:54:22;;;;;;;25.48;17.27;;;16.10;56.90;;;;;;5055251;28;20531;-64
2023/04/09 07:56:48;;;;;;;24.33;17.02;;;16.30;56.60;;;;;;5044688;28;20048;-64
2023/04/09 07:59:14;;;;;;;26.58;17.77;;;16.50;56.30;;;;;;5028412;28;20034;-65
2023/04/09 08:01:41;;;;;;;25.80;17.95;;;16.60;56.00;;;;;;5034838;28;20034;-64
2023/04/09 08:04:06;;;;;;;26.95;17.55;;;16.70;55.70;;;;;;5031497;28;20458;-63
2023/04/09 08:06:32;;;;;;;27.45;17.08;;;16.70;55.60;;;;;;5032325;28;20033;-64
2023/04/09 08:08:58;;;;;;;22.98;16.08;;;16.80;55.60;;;;;;5045876;28;20026;-64
2023/04/09 08:11:26;;;;;;;23.17;16.35;;;17.00;55.30;;;;;;5035314;28;20040;-64
2023/04/09 08:13:52;;;;;;;24.08;16.33;;;17.10;55.50;;;;;;5028289;28;20021;-64
2023/04/09 08:16:19;;;;;;;23.83;15.70;;;17.30;54.60;;;;;;5022772;28;20660;-64
2023/04/09 08:18:46;;;;;;;24.13;15.90;;;17.30;54.90;;;;;;5017791;28;20054;-64
2023/04/09 08:21:12;;;;;;;22.23;15.23;;;17.50;54.10;;;;;;5020423;28;20050;-64
2023/04/09 08:23:38;;;;;;;21.15;14.82;;;17.70;53.80;;;;;;5017670;28;20025;-64
2023/04/09 08:26:04;;;;;;;21.83;15.57;;;17.70;53.40;;;;;;5016856;28;20030;-65
2023/04/09 08:28:30;;;;;;;24.33;16.60;;;17.80;53.30;;;;;;5020448;28;20513;-65
2023/04/09 08:30:55;;;;;;;20.27;14.55;;;17.90;53.00;;;;;;5030142;28;20090;-65
2023/04/09 08:33:21;;;;;;;20.38;14.63;;;18.00;52.80;;;;;;5007383;28;20041;-66
2023/04/09 08:35:47;;;;;;;23.05;16.30;;;18.10;52.60;;;;;;5032863;28;20370;-66
2023/04/09 08:38:14;;;;;;;23.17;14.95;;;18.20;52.30;;;;;;5033569;28;20045;-66
2023/04/09 08:40:40;;;;;;;24.80;14.68;;;18.30;52.10;;;;;;5033939;28;20518;-65
2023/04/09 08:43:07;;;;;;;21.23;13.85;;;18.30;51.70;;;;;;5041245;28;20108;-65
2023/04/09 08:45:33;;;;;;;21.20;14.02;;;18.40;52.10;;;;;;5035612;28;20328;-64
2023/04/09 08:48:02;;;;;;;19.13;13.65;;;18.40;51.20;;;;;;5033448;28;20030;-65
2023/04/09 08:50:34;;;;;;;18.70;13.05;;;18.50;50.90;;;;;;5019117;28;20044;-65
2023/04/09 08:53:05;;;;;;;18.85;12.80;;;18.40;50.60;;;;;;5025226;28;20037;-66
2023/04/09 08:55:33;;;;;;;18.20;12.23;;;18.50;51.30;;;;;;5014382;28;20050;-66
2023/04/09 08:57:59;;;;;;;19.60;13.10;;;18.60;50.60;;;;;;5022388;28;20456;-66
2023/04/09 09:00:26;;;;;;;18.52;12.05;;;18.60;50.30;;;;;;5016891;28;20033;-66
2023/04/09 09:03:05;;;;;;;19.58;12.70;;;18.60;50.20;;;;;;5030886;28;20343;-66
2023/04/09 09:05:35;;;;;;;18.85;11.63;;;18.50;49.70;;;;;;5019255;28;20402;-66
2023/04/09 09:08:01;;;;;;;19.33;13.23;;;18.50;49.90;;;;;;5022437;28;20073;-66
2023/04/09 09:10:38;;;;;;;18.60;13.13;;;18.60;50.00;;;;;;5014151;28;20034;-66
2023/04/09 09:13:16;;;;;;;18.92;12.90;;;18.50;49.70;;;;;;5016642;28;20022;-66
2023/04/09 09:15:42;;;;;;;18.73;13.05;;;18.60;49.70;;;;;;5014001;28;20065;-67
2023/04/09 09:18:07;;;;;;;18.75;12.82;;;18.60;49.60;;;;;;5019898;28;20120;-66
2023/04/09 09:20:33;;;;;;;20.20;12.95;;;18.70;49.60;;;;;;5019544;28;20022;-66
2023/04/09 09:23:00;;;;;;;20.10;13.25;;;18.70;49.40;;;;;;5030898;28;20034;-67
2023/04/09 09:25:26;;;;;;;19.35;13.23;;;18.70;49.20;;;;;;5031223;28;20052;-66
2023/04/09 09:27:52;;;;;;;20.92;12.95;;;18.80;49.20;;;;;;5032871;28;20473;-66
2023/04/09 09:30:23;;;;;;;20.80;13.20;;;18.80;49.00;;;;;;5032496;28;20095;-66
2023/04/09 09:33:08;;;;;;;20.05;12.98;;;18.90;48.80;;;;;;5031062;28;20029;-66
2023/04/09 09:35:53;;;;;;;22.35;12.40;;;18.90;48.80;;;;;;5031585;28;20099;-66
2023/04/09 09:38:19;;;;;;;17.25;11.77;;;18.90;48.70;;;;;;5032678;28;20040;-64
2023/04/09 09:40:45;;;;;;;18.52;12.10;;;18.90;48.60;;;;;;5031575;28;20033;-64
2023/04/09 09:43:12;;;;;;;17.48;12.52;;;18.90;48.50;;;;;;5028383;28;20431;-64
2023/04/09 09:45:39;;;;;;;17.48;11.80;;;18.90;48.30;;;;;;5031210;28;20026;-64
2023/04/09 09:48:05;;;;;;;18.00;11.95;;;19.00;48.20;;;;;;5031289;28;20021;-65
2023/04/09 09:50:35;;;;;;;17.48;12.07;;;19.00;48.00;;;;;;5035010;28;20030;-65
2023/04/09 09:53:05;;;;;;;18.10;11.80;;;19.10;47.80;;;;;;5014562;28;20397;-65
2023/04/09 09:55:33;;;;;;;17.90;12.23;;;19.10;47.70;;;;;;5031528;28;20029;-65
2023/04/09 09:58:22;;;;;;;18.10;11.95;;;19.10;47.60;;;;;;5032038;28;20025;-65
2023/04/09 10:00:50;;;;;;;16.40;10.63;;;19.20;47.70;;;;;;5022324;28;20146;-65
2023/04/09 10:03:22;;;;;;;17.25;10.48;;;19.10;47.50;;;;;;5028757;28;20362;-65
2023/04/09 10:05:48;;;;;;;17.52;11.88;;;19.20;47.40;;;;;;5039607;28;20456;-65
2023/04/09 10:08:15;;;;;;;16.80;10.60;;;19.30;47.20;;;;;;5045171;28;20029;-65
2023/04/09 10:10:41;;;;;;;16.60;10.35;;;19.30;46.90;;;;;;5018821;28;20025;-65
2023/04/09 10:13:25;;;;;;;15.25;10.30;;;19.30;46.70;;;;;;5043577;28;20029;-65
2023/04/09 10:15:52;;;;;;;17.20;10.32;;;19.40;46.30;;;;;;5030961;28;20105;-66
2023/04/09 10:18:18;;;;;;;16.55;11.23;;;19.50;46.60;;;;;;5038332;28;20030;-65
2023/04/09 10:20:56;;;;;;;18.88;11.95;;;19.50;46.50;;;;;;5033046;28;20032;-65
2023/04/09 10:23:37;;;;;;;17.25;11.13;;;19.50;46.10;;;;;;5022653;28;20022;-64
2023/04/09 10:26:04;;;;;;;15.73;10.70;;;19.50;46.20;;;;;;5033993;28;20049;-64
2023/04/09 10:28:30;;;;;;;17.00;10.77;;;19.50;46.10;;;;;;5039768;28;20441;-64
2023/04/09 10:30:57;;;;;;;17.40;11.80;;;19.50;46.10;;;;;;5039764;28;20020;-64
2023/04/09 10:33:25;;;;;;;15.80;11.00;;;19.50;46.20;;;;;;5053858;28;20032;-64
2023/04/09 10:35:53;;;;;;;16.65;10.77;;;19.60;46.10;;;;;;5056872;28;20033;-64
2023/04/09 10:38:39;;;;;;;15.40;9.75;;;19.70;45.90;;;;;;5050161;28;20095;-64
2023/04/09 10:41:08;;;;;;;15.10;10.13;;;19.70;45.40;;;;;;5049927;28;20029;-65
2023/04/09 10:43:35;;;;;;;15.18;8.98;;;19.60;45.50;;;;;;5056158;28;20434;-64
2023/04/09 10:46:04;;;;;;;13.45;8.02;;;19.60;45.30;;;;;;5056933;28;20052;-64
2023/04/09 10:48:33;;;;;;;13.02;8.00;;;19.70;44.90;;;;;;5051970;28;20037;-65
2023/04/09 10:51:01;;;;;;;13.10;7.60;;;19.80;44.60;;;;;;5049185;28;20438;-64
2023/04/09 10:53:26;;;;;;;12.02;6.75;;;19.80;44.20;;;;;;5039119;28;20115;-65
2023/04/09 10:55:53;;;;;;;13.07;7.40;;;19.80;43.80;;;;;;5055810;28;20128;-64
2023/04/09 10:58:19;;;;;;;11.02;6.95;;;19.80;43.70;;;;;;5056635;28;20120;-65
2023/04/09 11:00:47;;;;;;;10.82;6.78;;;19.80;43.60;;;;;;5052987;28;20064;-64
2023/04/09 11:03:23;;;;;;;11.57;6.53;;;19.80;43.30;;;;;;5056380;28;20076;-64
2023/04/09 11:06:10;;;;;;;11.90;6.75;;;19.80;42.90;;;;;;5055670;28;20025;-65
2023/04/09 11:08:37;;;;;;;12.07;6.55;;;19.80;42.90;;;;;;5056812;28;20055;-64
2023/04/09 11:11:03;;;;;;;11.52;7.10;;;19.80;43.00;;;;;;5040937;28;20024;-67
2023/04/09 11:13:31;;;;;;;11.30;6.60;;;19.90;42.90;;;;;;5050033;28;20028;-65
2023/04/09 11:16:00;;;;;;;10.45;6.55;;;19.90;42.80;;;;;;5056530;28;20025;-64
2023/04/09 11:18:28;;;;;;;11.35;6.55;;;20.00;42.80;;;;;;5056692;28;20033;-65
2023/04/09 11:20:59;;;;;;;12.60;6.80;;;19.90;42.50;;;;;;5044207;28;20052;-64
2023/04/09 11:23:25;;;;;;;11.57;6.43;;;19.80;42.30;;;;;;5048514;28;20066;-64
2023/04/09 11:25:53;;;;;;;11.38;7.00;;;19.80;42.50;;;;;;5056602;28;20450;-65
2023/04/09 11:28:19;;;;;;;10.88;6.78;;;19.80;42.40;;;;;;5055495;28;20464;-67
2023/04/09 11:30:46;;;;;;;10.30;6.43;;;19.70;42.30;;;;;;5055256;28;20070;-65
2023/04/09 11:33:12;;;;;;;10.07;6.03;;;19.60;42.20;;;;;;5045825;28;20167;-65
2023/04/09 11:35:38;;;;;;;9.70;5.82;;;19.50;42.20;;;;;;5055074;28;20040;-65
2023/04/09 11:38:08;;;;;;;11.70;6.57;;;19.50;42.20;;;;;;5050692;28;20096;-65
2023/04/09 11:40:34;;;;;;;12.07;7.05;;;19.50;42.50;;;;;;5047397;28;20362;-65
2023/04/09 11:43:01;;;;;;;10.30;6.72;;;19.60;41.80;;;;;;5056401;28;20433;-65
2023/04/09 11:45:29;;;;;;;11.65;7.15;;;19.50;41.70;;;;;;5047936;28;20393;-65
2023/04/09 11:47:55;;;;;;;10.98;6.50;;;19.60;41.60;;;;;;5047297;28;20061;-65
2023/04/09 11:50:21;;;;;;;11.52;5.90;;;19.60;41.60;;;;;;5023175;28;20040;-65
2023/04/09 11:52:48;;;;;;;9.75;5.65;;;19.60;41.50;;;;;;5035620;28;20108;-64
2023/04/09 11:55:28;;;;;;;11.82;6.13;;;19.70;41.50;;;;;;5038547;28;20039;-66
2023/04/09 11:57:59;;;;;;;8.65;5.10;;;19.70;41.00;;;;;;5039338;28;20111;-64
2023/04/09 12:00:26;;;;;;;10.43;5.47;;;19.70;41.00;;;;;;5050726;28;20087;-64
2023/04/09 12:03:02;;;;;;;10.20;6.15;;;19.60;41.00;;;;;;5043805;28;20367;-64
2023/04/09 12:05:32;;;;;;;9.05;5.45;;;19.60;41.00;;;;;;5044626;28;20025;-64
2023/04/09 12:08:03;;;;;;;9.48;5.45;;;19.60;41.10;;;;;;5033058;28;20029;-65
2023/04/09 12:10:36;;;;;;;9.45;5.43;;;19.50;40.90;;;;;;5026328;28;20328;-65
2023/04/09 12:13:05;;;;;;;9.98;5.68;;;19.50;40.70;;;;;;5027948;28;20044;-65
2023/04/09 12:15:33;;;;;;;10.63;5.80;;;19.40;40.80;;;;;;5044478;28;20072;-65
2023/04/09 12:18:00;;;;;;;10.65;6.15;;;19.30;40.90;;;;;;5037899;28;20112;-65
2023/04/09 12:20:35;;;;;;;12.35;6.53;;;19.30;41.10;;;;;;5041397;28;20472;-65
2023/04/09 12:23:03;;;;;;;10.82;6.88;;;19.10;41.00;;;;;;5033675;28;20120;-65
2023/04/09 12:25:34;;;;;;;11.02;6.70;;;19.00;41.20;;;;;;5042067;28;20029;-65
2023/04/09 12:28:00;;;;;;;13.73;6.63;;;19.00;41.50;;;;;;5033479;28;20104;-64
2023/04/09 12:30:26;;;;;;;12.27;7.70;;;18.90;41.60;;;;;;5042617;28;20040;-65
2023/04/09 12:32:53;;;;;;;12.20;7.55;;;18.90;41.90;;;;;;5041061;28;20040;-64
2023/04/09 12:35:19;;;;;;;14.82;9.25;;;18.80;41.90;;;;;;5041462;28;20044;-64
2023/04/09 12:37:46;;;;;;;12.98;8.57;;;18.80;42.10;;;;;;5042709;28;20399;-64